sensor_id;sensor_type;location;lat;lon;timestamp;temperature;humidity
43320;DHT22;28914;48.722;9.332;2024-03-23T00:55:43;10.30;69.20
43320;DHT22;28914;48.722;9.332;2024-03-23T01:01:02;10.20;69.20
43320;DHT22;28914;48.722;9.332;2024-03-23T01:06:22;10.20;69.40
43320;DHT22;28914;48.722;9.332;2024-03-23T01:11:42;10.10;69.60
43320;DHT22;28914;48.722;9.332;2024-03-23T01:17:01;10.10;70.00
43320;DHT22;28914;48.722;9.332;2024-03-23T01:22:20;10.00;70.00
43320;DHT22;28914;48.722;9.332;2024-03-23T01:27:39;10.00;70.00
43320;DHT22;28914;48.722;9.332;2024-03-23T01:32:59;9.90;71.00
43320;DHT22;28914;48.722;9.332;2024-03-23T01:38:18;9.90;70.50
43320;DHT22;28914;48.722;9.332;2024-03-23T01:43:37;9.90;70.50
43320;DHT22;28914;48.722;9.332;2024-03-23T01:48:56;10.00;70.80
43320;DHT22;28914;48.722;9.332;2024-03-23T01:54:15;10.00;70.90
43320;DHT22;28914;48.722;9.332;2024-03-23T01:59:35;10.00;71.10
43320;DHT22;28914;48.722;9.332;2024-03-23T02:04:54;10.10;71.20
43320;DHT22;28914;48.722;9.332;2024-03-23T02:10:14;10.20;71.10
43320;DHT22;28914;48.722;9.332;2024-03-23T02:15:34;10.10;71.00
43320;DHT22;28914;48.722;9.332;2024-03-23T02:20:53;10.20;71.30
43320;DHT22;28914;48.722;9.332;2024-03-23T02:26:12;10.20;71.40
43320;DHT22;28914;48.722;9.332;2024-03-23T02:31:32;10.20;71.60
43320;DHT22;28914;48.722;9.332;2024-03-23T02:36:52;10.20;71.90
43320;DHT22;28914;48.722;9.332;2024-03-23T02:42:11;10.20;72.00
43320;DHT22;28914;48.722;9.332;2024-03-23T02:47:30;10.20;71.70
43320;DHT22;28914;48.722;9.332;2024-03-23T02:52:50;10.20;71.60
43320;DHT22;28914;48.722;9.332;2024-03-23T02:58:09;10.20;71.60
43320;DHT22;28914;48.722;9.332;2024-03-23T03:03:28;10.20;71.60
43320;DHT22;28914;48.722;9.332;2024-03-23T03:08:47;10.20;71.60
43320;DHT22;28914;48.722;9.332;2024-03-23T03:14:07;10.20;72.50
43320;DHT22;28914;48.722;9.332;2024-03-23T03:19:26;10.10;71.60
43320;DHT22;28914;48.722;9.332;2024-03-23T03:24:46;10.10;71.70
43320;DHT22;28914;48.722;9.332;2024-03-23T03:30:05;10.10;71.80
43320;DHT22;28914;48.722;9.332;2024-03-23T03:35:27;10.10;72.00
43320;DHT22;28914;48.722;9.332;2024-03-23T03:40:46;10.00;72.20
43320;DHT22;28914;48.722;9.332;2024-03-23T03:46:05;10.00;72.20
43320;DHT22;28914;48.722;9.332;2024-03-23T03:51:27;10.00;72.10
43320;DHT22;28914;48.722;9.332;2024-03-23T03:56:46;9.80;71.90
43320;DHT22;28914;48.722;9.332;2024-03-23T04:02:05;9.80;72.10
43320;DHT22;28914;48.722;9.332;2024-03-23T04:07:24;9.70;72.50
43320;DHT22;28914;48.722;9.332;2024-03-23T04:12:44;9.60;72.80
43320;DHT22;28914;48.722;9.332;2024-03-23T04:18:04;9.50;73.00
43320;DHT22;28914;48.722;9.332;2024-03-23T04:23:23;9.50;73.10
43320;DHT22;28914;48.722;9.332;2024-03-23T04:28:42;9.40;73.10
43320;DHT22;28914;48.722;9.332;2024-03-23T04:34:02;9.40;73.60
43320;DHT22;28914;48.722;9.332;2024-03-23T04:39:21;9.40;73.90
43320;DHT22;28914;48.722;9.332;2024-03-23T04:44:40;9.40;73.90
43320;DHT22;28914;48.722;9.332;2024-03-23T04:49:59;9.50;74.00
43320;DHT22;28914;48.722;9.332;2024-03-23T04:55:20;9.50;74.10
43320;DHT22;28914;48.722;9.332;2024-03-23T05:00:41;9.60;73.90
43320;DHT22;28914;48.722;9.332;2024-03-23T05:06:00;9.60;75.60
43320;DHT22;28914;48.722;9.332;2024-03-23T05:11:19;9.70;75.30
43320;DHT22;28914;48.722;9.332;2024-03-23T05:16:40;9.90;76.10
43320;DHT22;28914;48.722;9.332;2024-03-23T05:21:59;10.20;77.30
43320;DHT22;28914;48.722;9.332;2024-03-23T05:27:18;10.60;78.60
43320;DHT22;28914;48.722;9.332;2024-03-23T05:32:37;10.90;79.00
43320;DHT22;28914;48.722;9.332;2024-03-23T05:37:59;11.30;79.10
43320;DHT22;28914;48.722;9.332;2024-03-23T05:43:18;11.50;78.80
43320;DHT22;28914;48.722;9.332;2024-03-23T05:48:38;11.80;79.40
43320;DHT22;28914;48.722;9.332;2024-03-23T05:53:57;12.00;79.60
43320;DHT22;28914;48.722;9.332;2024-03-23T05:59:16;12.20;79.70
43320;DHT22;28914;48.722;9.332;2024-03-23T06:04:36;12.40;80.10
43320;DHT22;28914;48.722;9.332;2024-03-23T06:09:55;12.60;80.10
43320;DHT22;28914;48.722;9.332;2024-03-23T06:15:14;12.70;79.40
43320;DHT22;28914;48.722;9.332;2024-03-23T06:20:34;12.80;79.00
43320;DHT22;28914;48.722;9.332;2024-03-23T06:25:53;12.90;79.10
43320;DHT22;28914;48.722;9.332;2024-03-23T06:31:13;13.00;79.00
43320;DHT22;28914;48.722;9.332;2024-03-23T06:36:32;12.90;78.00
43320;DHT22;28914;48.722;9.332;2024-03-23T06:41:53;12.90;77.30
43320;DHT22;28914;48.722;9.332;2024-03-23T06:47:12;12.90;76.60
43320;DHT22;28914;48.722;9.332;2024-03-23T06:52:31;12.90;76.50
43320;DHT22;28914;48.722;9.332;2024-03-23T06:57:50;12.80;75.80
43320;DHT22;28914;48.722;9.332;2024-03-23T07:03:09;12.80;75.30
43320;DHT22;28914;48.722;9.332;2024-03-23T07:08:29;12.70;74.80
43320;DHT22;28914;48.722;9.332;2024-03-23T07:13:51;12.70;74.30
43320;DHT22;28914;48.722;9.332;2024-03-23T07:19:11;12.70;74.30
43320;DHT22;28914;48.722;9.332;2024-03-23T07:24:30;12.70;74.30
43320;DHT22;28914;48.722;9.332;2024-03-23T07:29:49;12.70;74.30
43320;DHT22;28914;48.722;9.332;2024-03-23T07:35:09;12.90;74.50
43320;DHT22;28914;48.722;9.332;2024-03-23T07:40:28;13.00;74.20
43320;DHT22;28914;48.722;9.332;2024-03-23T07:45:53;13.00;73.50
43320;DHT22;28914;48.722;9.332;2024-03-23T07:51:21;13.10;73.50
43320;DHT22;28914;48.722;9.332;2024-03-23T07:56:40;13.20;73.50
43320;DHT22;28914;48.722;9.332;2024-03-23T08:02:00;13.40;73.40
43320;DHT22;28914;48.722;9.332;2024-03-23T08:07:19;13.60;73.10
43320;DHT22;28914;48.722;9.332;2024-03-23T08:12:38;13.70;72.20
43320;DHT22;28914;48.722;9.332;2024-03-23T08:17:57;13.70;71.90
43320;DHT22;28914;48.722;9.332;2024-03-23T08:23:16;13.60;71.70
43320;DHT22;28914;48.722;9.332;2024-03-23T08:28:36;13.40;72.30
43320;DHT22;28914;48.722;9.332;2024-03-23T08:33:55;13.20;72.30
43320;DHT22;28914;48.722;9.332;2024-03-23T08:39:14;13.10;73.00
43320;DHT22;28914;48.722;9.332;2024-03-23T08:44:34;13.10;73.00
43320;DHT22;28914;48.722;9.332;2024-03-23T08:49:53;13.00;72.90
43320;DHT22;28914;48.722;9.332;2024-03-23T08:55:12;13.60;75.30
43320;DHT22;28914;48.722;9.332;2024-03-23T09:00:33;15.00;77.50
43320;DHT22;28914;48.722;9.332;2024-03-23T09:05:52;17.00;75.50
43320;DHT22;28914;48.722;9.332;2024-03-23T09:11:12;18.40;69.10
43320;DHT22;28914;48.722;9.332;2024-03-23T09:16:32;18.70;63.60
43320;DHT22;28914;48.722;9.332;2024-03-23T09:21:51;18.30;61.20
43320;DHT22;28914;48.722;9.332;2024-03-23T09:27:10;17.60;59.60
43320;DHT22;28914;48.722;9.332;2024-03-23T09:32:29;16.80;60.00
43320;DHT22;28914;48.722;9.332;2024-03-23T09:37:49;16.20;61.30
43320;DHT22;28914;48.722;9.332;2024-03-23T09:43:09;15.80;61.90
43320;DHT22;28914;48.722;9.332;2024-03-23T09:48:28;15.70;61.60
43320;DHT22;28914;48.722;9.332;2024-03-23T09:53:49;16.00;64.00
43320;DHT22;28914;48.722;9.332;2024-03-23T09:59:08;16.70;61.30
43320;DHT22;28914;48.722;9.332;2024-03-23T10:04:42;17.00;58.80
43320;DHT22;28914;48.722;9.332;2024-03-23T10:10:10;16.90;56.90
43320;DHT22;28914;48.722;9.332;2024-03-23T10:15:30;16.60;55.50
43320;DHT22;28914;48.722;9.332;2024-03-23T10:21:07;16.20;56.10
43320;DHT22;28914;48.722;9.332;2024-03-23T10:26:27;15.90;55.50
43320;DHT22;28914;48.722;9.332;2024-03-23T10:31:47;15.80;56.50
43320;DHT22;28914;48.722;9.332;2024-03-23T10:37:07;15.70;56.10
43320;DHT22;28914;48.722;9.332;2024-03-23T10:42:27;15.70;57.00
43320;DHT22;28914;48.722;9.332;2024-03-23T10:47:46;15.60;57.00
43320;DHT22;28914;48.722;9.332;2024-03-23T10:53:07;15.60;57.40
43320;DHT22;28914;48.722;9.332;2024-03-23T10:58:47;15.60;57.30
43320;DHT22;28914;48.722;9.332;2024-03-23T11:04:08;15.40;53.50
43320;DHT22;28914;48.722;9.332;2024-03-23T11:09:43;15.00;53.90
43320;DHT22;28914;48.722;9.332;2024-03-23T11:15:11;14.60;55.90
43320;DHT22;28914;48.722;9.332;2024-03-23T11:20:34;14.10;58.40
43320;DHT22;28914;48.722;9.332;2024-03-23T11:25:53;13.50;59.60
43320;DHT22;28914;48.722;9.332;2024-03-23T11:31:14;12.80;61.20
43320;DHT22;28914;48.722;9.332;2024-03-23T11:36:33;12.40;62.40
43320;DHT22;28914;48.722;9.332;2024-03-23T11:41:54;12.20;64.20
43320;DHT22;28914;48.722;9.332;2024-03-23T11:47:13;12.30;65.10
43320;DHT22;28914;48.722;9.332;2024-03-23T11:52:33;12.40;65.80
43320;DHT22;28914;48.722;9.332;2024-03-23T11:57:52;12.60;65.20
43320;DHT22;28914;48.722;9.332;2024-03-23T12:03:11;12.80;65.20
43320;DHT22;28914;48.722;9.332;2024-03-23T12:08:32;13.10;65.10
43320;DHT22;28914;48.722;9.332;2024-03-23T12:13:52;13.30;64.60
43320;DHT22;28914;48.722;9.332;2024-03-23T12:19:11;13.50;64.50
43320;DHT22;28914;48.722;9.332;2024-03-23T12:24:31;13.60;64.50
43320;DHT22;28914;48.722;9.332;2024-03-23T12:29:50;13.90;62.90
43320;DHT22;28914;48.722;9.332;2024-03-23T12:35:10;14.10;62.70
43320;DHT22;28914;48.722;9.332;2024-03-23T12:40:29;14.30;62.00
43320;DHT22;28914;48.722;9.332;2024-03-23T12:45:48;14.30;60.60
43320;DHT22;28914;48.722;9.332;2024-03-23T12:51:08;14.20;59.90
43320;DHT22;28914;48.722;9.332;2024-03-23T12:56:27;14.10;59.10
43320;DHT22;28914;48.722;9.332;2024-03-23T13:01:49;14.00;59.00
43320;DHT22;28914;48.722;9.332;2024-03-23T13:07:09;13.90;58.90
43320;DHT22;28914;48.722;9.332;2024-03-23T13:12:28;13.90;59.50
43320;DHT22;28914;48.722;9.332;2024-03-23T13:17:47;13.80;59.00
43320;DHT22;28914;48.722;9.332;2024-03-23T13:23:06;13.80;59.30
43320;DHT22;28914;48.722;9.332;2024-03-23T13:28:26;13.90;59.90
43320;DHT22;28914;48.722;9.332;2024-03-23T13:33:45;13.90;58.80
43320;DHT22;28914;48.722;9.332;2024-03-23T13:39:04;13.80;59.50
43320;DHT22;28914;48.722;9.332;2024-03-23T13:44:30;13.70;59.60
43320;DHT22;28914;48.722;9.332;2024-03-23T13:49:48;13.70;59.10
43320;DHT22;28914;48.722;9.332;2024-03-23T13:55:08;13.90;58.60
43320;DHT22;28914;48.722;9.332;2024-03-23T14:00:28;14.00;56.20
43320;DHT22;28914;48.722;9.332;2024-03-23T14:05:47;14.00;55.70
43320;DHT22;28914;48.722;9.332;2024-03-23T14:11:06;14.00;56.10
43320;DHT22;28914;48.722;9.332;2024-03-23T14:16:25;14.00;55.30
43320;DHT22;28914;48.722;9.332;2024-03-23T14:21:44;13.90;55.40
43320;DHT22;28914;48.722;9.332;2024-03-23T14:27:04;13.90;55.60
43320;DHT22;28914;48.722;9.332;2024-03-23T14:32:26;13.80;55.40
43320;DHT22;28914;48.722;9.332;2024-03-23T14:37:45;13.70;57.10
43320;DHT22;28914;48.722;9.332;2024-03-23T14:43:06;13.70;58.50
43320;DHT22;28914;48.722;9.332;2024-03-23T14:48:25;13.80;59.10
43320;DHT22;28914;48.722;9.332;2024-03-23T14:53:45;13.80;58.80
43320;DHT22;28914;48.722;9.332;2024-03-23T14:59:04;13.70;58.50
43320;DHT22;28914;48.722;9.332;2024-03-23T15:04:25;13.60;58.30
43320;DHT22;28914;48.722;9.332;2024-03-23T15:09:44;13.50;58.20
43320;DHT22;28914;48.722;9.332;2024-03-23T15:15:03;13.30;58.00
43320;DHT22;28914;48.722;9.332;2024-03-23T15:20:23;13.10;57.70
43320;DHT22;28914;48.722;9.332;2024-03-23T15:25:42;12.90;59.70
43320;DHT22;28914;48.722;9.332;2024-03-23T15:31:01;12.70;59.90
43320;DHT22;28914;48.722;9.332;2024-03-23T15:36:21;12.50;59.90
43320;DHT22;28914;48.722;9.332;2024-03-23T15:41:41;12.20;60.10
43320;DHT22;28914;48.722;9.332;2024-03-23T15:47:00;12.00;60.30
43320;DHT22;28914;48.722;9.332;2024-03-23T15:52:19;11.80;60.50
43320;DHT22;28914;48.722;9.332;2024-03-23T15:57:40;11.70;60.80
43320;DHT22;28914;48.722;9.332;2024-03-23T16:02:59;11.60;61.00
43320;DHT22;28914;48.722;9.332;2024-03-23T16:08:18;11.60;61.30
43320;DHT22;28914;48.722;9.332;2024-03-23T16:13:37;11.70;61.30
43320;DHT22;28914;48.722;9.332;2024-03-23T16:18:56;11.70;61.30
43320;DHT22;28914;48.722;9.332;2024-03-23T16:24:15;11.70;61.20
43320;DHT22;28914;48.722;9.332;2024-03-23T16:29:35;11.80;61.10
43320;DHT22;28914;48.722;9.332;2024-03-23T16:34:54;11.90;61.10
43320;DHT22;28914;48.722;9.332;2024-03-23T16:40:13;11.90;61.20
43320;DHT22;28914;48.722;9.332;2024-03-23T16:45:32;11.80;60.00
43320;DHT22;28914;48.722;9.332;2024-03-23T16:50:52;11.80;60.10
43320;DHT22;28914;48.722;9.332;2024-03-23T16:56:11;11.70;60.20
43320;DHT22;28914;48.722;9.332;2024-03-23T17:01:31;11.70;60.40
43320;DHT22;28914;48.722;9.332;2024-03-23T17:06:51;11.80;60.80
43320;DHT22;28914;48.722;9.332;2024-03-23T17:12:10;11.70;60.90
43320;DHT22;28914;48.722;9.332;2024-03-23T17:17:29;11.70;60.90
43320;DHT22;28914;48.722;9.332;2024-03-23T17:22:55;11.70;60.70
43320;DHT22;28914;48.722;9.332;2024-03-23T17:28:14;11.60;60.70
43320;DHT22;28914;48.722;9.332;2024-03-23T17:33:34;11.50;60.70
43320;DHT22;28914;48.722;9.332;2024-03-23T17:38:54;11.40;61.00
43320;DHT22;28914;48.722;9.332;2024-03-23T17:44:14;11.30;61.30
43320;DHT22;28914;48.722;9.332;2024-03-23T17:49:33;11.20;61.80
43320;DHT22;28914;48.722;9.332;2024-03-23T17:54:52;11.20;62.10
43320;DHT22;28914;48.722;9.332;2024-03-23T18:00:12;11.20;62.40
43320;DHT22;28914;48.722;9.332;2024-03-23T18:05:34;11.20;62.70
43320;DHT22;28914;48.722;9.332;2024-03-23T18:10:53;11.10;64.90
43320;DHT22;28914;48.722;9.332;2024-03-23T18:16:12;10.70;65.00
43320;DHT22;28914;48.722;9.332;2024-03-23T18:21:31;10.10;65.20
43320;DHT22;28914;48.722;9.332;2024-03-23T18:26:50;9.60;66.10
43320;DHT22;28914;48.722;9.332;2024-03-23T18:32:10;9.30;66.90
43320;DHT22;28914;48.722;9.332;2024-03-23T18:37:29;9.00;67.50
43320;DHT22;28914;48.722;9.332;2024-03-23T18:42:48;8.70;68.20
43320;DHT22;28914;48.722;9.332;2024-03-23T18:48:07;8.60;68.80
43320;DHT22;28914;48.722;9.332;2024-03-23T18:53:27;8.40;69.50
43320;DHT22;28914;48.722;9.332;2024-03-23T18:58:46;8.30;70.30
43320;DHT22;28914;48.722;9.332;2024-03-23T19:04:05;8.10;70.70
43320;DHT22;28914;48.722;9.332;2024-03-23T19:09:24;8.00;71.30
43320;DHT22;28914;48.722;9.332;2024-03-23T19:14:44;7.90;71.70
43320;DHT22;28914;48.722;9.332;2024-03-23T19:20:04;7.80;71.90
43320;DHT22;28914;48.722;9.332;2024-03-23T19:25:23;7.80;72.20
43320;DHT22;28914;48.722;9.332;2024-03-23T19:30:42;7.80;72.70
43320;DHT22;28914;48.722;9.332;2024-03-23T19:36:02;7.80;73.00
43320;DHT22;28914;48.722;9.332;2024-03-23T19:41:21;7.80;73.40
43320;DHT22;28914;48.722;9.332;2024-03-23T19:46:41;7.80;73.50
43320;DHT22;28914;48.722;9.332;2024-03-23T19:52:00;7.80;73.60
43320;DHT22;28914;48.722;9.332;2024-03-23T19:57:19;7.70;73.60
43320;DHT22;28914;48.722;9.332;2024-03-23T20:02:39;7.60;73.60
43320;DHT22;28914;48.722;9.332;2024-03-23T20:07:58;7.50;73.70
43320;DHT22;28914;48.722;9.332;2024-03-23T20:13:17;7.40;73.90
43320;DHT22;28914;48.722;9.332;2024-03-23T20:18:37;7.30;74.30
43320;DHT22;28914;48.722;9.332;2024-03-23T20:23:56;7.10;74.30
43320;DHT22;28914;48.722;9.332;2024-03-23T20:29:15;7.00;75.40
43320;DHT22;28914;48.722;9.332;2024-03-23T20:34:34;6.90;74.70
43320;DHT22;28914;48.722;9.332;2024-03-23T20:39:53;6.90;75.20
43320;DHT22;28914;48.722;9.332;2024-03-23T20:45:13;6.80;75.50
43320;DHT22;28914;48.722;9.332;2024-03-23T20:50:34;6.80;75.90
43320;DHT22;28914;48.722;9.332;2024-03-23T20:55:57;6.90;75.90
43320;DHT22;28914;48.722;9.332;2024-03-23T21:01:16;6.90;75.80
43320;DHT22;28914;48.722;9.332;2024-03-23T21:06:35;6.90;75.60
43320;DHT22;28914;48.722;9.332;2024-03-23T21:11:55;6.80;75.70
43320;DHT22;28914;48.722;9.332;2024-03-23T21:17:14;6.80;75.90
43320;DHT22;28914;48.722;9.332;2024-03-23T21:22:33;6.80;76.00
43320;DHT22;28914;48.722;9.332;2024-03-23T21:27:52;6.80;77.00
43320;DHT22;28914;48.722;9.332;2024-03-23T21:33:12;6.80;76.50
43320;DHT22;28914;48.722;9.332;2024-03-23T21:38:31;6.80;76.60
43320;DHT22;28914;48.722;9.332;2024-03-23T21:43:50;6.80;76.80
43320;DHT22;28914;48.722;9.332;2024-03-23T21:49:10;6.90;77.00
43320;DHT22;28914;48.722;9.332;2024-03-23T21:54:29;6.90;77.20
43320;DHT22;28914;48.722;9.332;2024-03-23T21:59:48;7.00;77.40
43320;DHT22;28914;48.722;9.332;2024-03-23T22:05:07;7.20;77.60
43320;DHT22;28914;48.722;9.332;2024-03-23T22:10:27;7.30;77.50
43320;DHT22;28914;48.722;9.332;2024-03-23T22:15:46;7.40;77.20
43320;DHT22;28914;48.722;9.332;2024-03-23T22:21:05;7.60;76.90
43320;DHT22;28914;48.722;9.332;2024-03-23T22:26:24;7.70;76.70
43320;DHT22;28914;48.722;9.332;2024-03-23T22:31:43;7.80;76.40
43320;DHT22;28914;48.722;9.332;2024-03-23T22:37:03;7.80;76.00
43320;DHT22;28914;48.722;9.332;2024-03-23T22:42:22;7.90;75.70
43320;DHT22;28914;48.722;9.332;2024-03-23T22:47:41;7.90;75.60
43320;DHT22;28914;48.722;9.332;2024-03-23T22:53:00;8.00;75.70
43320;DHT22;28914;48.722;9.332;2024-03-23T22:58:20;8.00;75.90
43320;DHT22;28914;48.722;9.332;2024-03-23T23:03:40;8.00;75.70
43320;DHT22;28914;48.722;9.332;2024-03-23T23:08:59;8.00;75.70
43320;DHT22;28914;48.722;9.332;2024-03-23T23:14:19;8.00;75.50
43320;DHT22;28914;48.722;9.332;2024-03-23T23:19:38;8.00;75.70
43320;DHT22;28914;48.722;9.332;2024-03-23T23:24:58;8.00;75.70
43320;DHT22;28914;48.722;9.332;2024-03-23T23:30:17;8.00;75.70
43320;DHT22;28914;48.722;9.332;2024-03-23T23:35:36;8.10;76.00
43320;DHT22;28914;48.722;9.332;2024-03-23T23:40:55;8.10;76.00
43320;DHT22;28914;48.722;9.332;2024-03-23T23:46:15;8.10;76.90
43320;DHT22;28914;48.722;9.332;2024-03-23T23:51:34;8.10;76.00
43320;DHT22;28914;48.722;9.332;2024-03-23T23:56:53;8.20;75.90
